createdAt,value
2023-11-03T00:00:13.968Z,20.2
2023-11-03T00:05:17.263Z,20.2
2023-11-03T00:10:16.374Z,20.2
2023-11-03T00:15:22.543Z,20.1
2023-11-03T00:20:13.601Z,20.1
2023-11-03T00:25:15.114Z,20.1
2023-11-03T00:30:14.775Z,20.1
2023-11-03T00:35:17.765Z,20.1
2023-11-03T00:40:14.076Z,20.1
2023-11-03T00:45:14.527Z,20.1
2023-11-03T00:50:22.189Z,20.1
2023-11-03T00:55:18.417Z,20
2023-11-03T01:00:14.331Z,20
2023-11-03T01:05:14.669Z,20
2023-11-03T01:10:14.168Z,20
2023-11-03T01:15:14.308Z,20
2023-11-03T01:20:16.870Z,20
2023-11-03T01:25:16.160Z,20
2023-11-03T01:30:14.414Z,20
2023-11-03T01:35:23.007Z,20
2023-11-03T01:40:14.420Z,20
2023-11-03T01:45:14.433Z,20
2023-11-03T01:50:18.111Z,19.9
2023-11-03T01:55:16.555Z,19.9
2023-11-03T02:00:18.536Z,19.9
2023-11-03T02:05:14.685Z,19.9
2023-11-03T02:10:21.012Z,19.9
2023-11-03T02:15:13.818Z,19.9
2023-11-03T02:20:14.250Z,19.9
2023-11-03T02:25:21.082Z,19.9
2023-11-03T02:30:14.018Z,19.9
2023-11-03T02:35:14.100Z,19.9
2023-11-03T02:40:20.388Z,19.9
2023-11-03T02:45:14.320Z,19.9
2023-11-03T02:50:13.833Z,19.9
2023-11-03T02:55:18.496Z,19.8
2023-11-03T03:00:18.515Z,19.8
2023-11-03T03:05:18.733Z,19.8
2023-11-03T03:10:18.320Z,19.8
2023-11-03T03:15:14.465Z,19.8
2023-11-03T03:20:14.162Z,19.8
2023-11-03T03:25:16.617Z,19.8
2023-11-03T03:30:16.877Z,19.8
2023-11-03T03:35:14.503Z,19.8
2023-11-03T03:40:22.843Z,19.8
2023-11-03T03:45:14.269Z,19.8
2023-11-03T03:50:16.028Z,19.8
2023-11-03T03:55:16.782Z,19.8
2023-11-03T04:00:15.716Z,19.8
2023-11-03T04:05:15.625Z,19.8
2023-11-03T04:10:23.118Z,19.7
2023-11-03T04:15:16.705Z,19.7
2023-11-03T04:20:14.477Z,19.7
2023-11-03T04:25:14.942Z,19.7
2023-11-03T04:30:16.055Z,19.7
2023-11-03T04:35:21.007Z,19.7
2023-11-03T04:40:16.216Z,19.7
2023-11-03T04:45:19.852Z,19.7
2023-11-03T04:50:13.978Z,19.7
2023-11-03T04:55:18.179Z,19.7
2023-11-03T05:00:14.808Z,19.7
2023-11-03T05:05:15.935Z,19.7
2023-11-03T05:10:16.563Z,19.6
2023-11-03T05:15:14.596Z,19.6
2023-11-03T05:20:14.651Z,19.6
2023-11-03T05:25:21.047Z,19.7
2023-11-03T05:30:16.245Z,19.7
2023-11-03T05:35:14.395Z,19.7
2023-11-03T05:40:20.840Z,19.7
2023-11-03T05:45:15.797Z,19.8
2023-11-03T05:50:19.039Z,19.8
2023-11-03T05:55:16.259Z,19.8
2023-11-03T06:00:14.223Z,19.9
2023-11-03T06:05:15.915Z,19.9
2023-11-03T06:10:20.241Z,20
2023-11-03T06:15:14.282Z,20
2023-11-03T06:20:24.376Z,20
2023-11-03T06:25:16.257Z,20
2023-11-03T06:30:20.392Z,20
2023-11-03T06:35:16.687Z,20
2023-11-03T06:40:14.929Z,20
2023-11-03T06:45:18.398Z,20
2023-11-03T06:50:16.154Z,20
2023-11-03T06:55:14.654Z,20
2023-11-03T07:00:14.398Z,20
2023-11-03T07:05:22.074Z,20
2023-11-03T07:10:14.662Z,20
2023-11-03T07:15:13.656Z,20
2023-11-03T07:20:20.797Z,20
2023-11-03T07:25:13.953Z,20
2023-11-03T07:30:18.122Z,19.9
2023-11-03T07:35:15.979Z,19.9
2023-11-03T07:40:14.376Z,19.9
2023-11-03T07:45:14.697Z,19.9
2023-11-03T07:50:15.972Z,19.9
2023-11-03T07:55:14.268Z,19.9
2023-11-03T08:00:17.412Z,20
2023-11-03T08:05:16.998Z,19.9
2023-11-03T08:10:20.789Z,19.9
2023-11-03T08:15:35.885Z,19.9
2023-11-03T08:20:17.948Z,19.9
2023-11-03T08:25:18.461Z,19.9
2023-11-03T08:30:14.449Z,19.9
2023-11-03T08:35:16.831Z,19.9
2023-11-03T08:40:19.125Z,19.9
2023-11-03T08:45:16.258Z,19.9
2023-11-03T08:50:14.551Z,19.9
2023-11-03T08:55:19.221Z,19.9
2023-11-03T09:00:18.434Z,19.9
2023-11-03T09:05:13.668Z,19.9
2023-11-03T09:10:16.032Z,20
2023-11-03T09:15:15.934Z,20
2023-11-03T09:20:13.819Z,20
2023-11-03T09:25:18.424Z,20
2023-11-03T09:30:16.071Z,20
2023-11-03T09:35:18.842Z,20
2023-11-03T09:50:20.892Z,20
2023-11-03T09:55:15.815Z,20
2023-11-03T10:00:17.943Z,20
2023-11-03T10:05:15.232Z,20
2023-11-03T10:10:16.616Z,20
2023-11-03T10:15:16.603Z,20
2023-11-03T10:20:15.922Z,20.1
2023-11-03T10:25:16.054Z,20.1
2023-11-03T10:30:22.406Z,20.1
2023-11-03T10:35:20.290Z,20.1
2023-11-03T10:40:24.777Z,20.1
2023-11-03T10:45:14.119Z,20.1
2023-11-03T10:50:17.523Z,20.1
2023-11-03T10:55:21.264Z,20.1
2023-11-03T11:00:16.628Z,20.1
2023-11-03T11:05:20.934Z,20.1
2023-11-03T11:10:17.236Z,20.1
2023-11-03T11:15:15.609Z,20.1
2023-11-03T11:20:22.443Z,20.1
2023-11-03T11:25:16.828Z,20.1
2023-11-03T11:30:16.016Z,20.1
2023-11-03T11:35:18.955Z,20.1
2023-11-03T11:40:14.681Z,20.1
2023-11-03T11:45:13.759Z,20.1
2023-11-03T11:50:28.373Z,20.1
2023-11-03T11:55:17.550Z,20.1
2023-11-03T12:00:17.661Z,20.1
2023-11-03T12:05:14.816Z,20.1
2023-11-03T12:10:19.823Z,20.1
2023-11-03T12:15:14.067Z,20.1
2023-11-03T12:20:14.398Z,20.1
2023-11-03T12:25:18.754Z,20.2
2023-11-03T12:30:24.809Z,20.2
2023-11-03T12:35:14.068Z,20.2
2023-11-03T12:40:20.106Z,20.3
2023-11-03T12:45:21.042Z,20.3
2023-11-03T12:50:20.236Z,20.3
2023-11-03T12:55:21.983Z,20.4
2023-11-03T13:00:16.896Z,20.4
2023-11-03T13:05:20.487Z,20.4
2023-11-03T13:10:17.060Z,20.3
2023-11-03T13:15:14.491Z,20.4
2023-11-03T13:20:22.388Z,20.4
2023-11-03T13:25:22.390Z,20.3
2023-11-03T13:30:18.604Z,20.3
2023-11-03T13:35:16.185Z,20.3
2023-11-03T13:40:16.605Z,20.3
2023-11-03T13:45:13.704Z,20.3
2023-11-03T13:50:42.981Z,20.4
2023-11-03T13:55:16.470Z,20.3
2023-11-03T14:00:13.727Z,20.3
2023-11-03T14:05:22.527Z,20.3
2023-11-03T14:10:16.931Z,20.3
2023-11-03T14:15:17.055Z,20.3
2023-11-03T14:20:16.965Z,20.3
2023-11-03T14:25:14.617Z,20.3
2023-11-03T14:30:14.461Z,20.3
2023-11-03T14:35:18.965Z,20.3
2023-11-03T14:40:20.108Z,20.3
2023-11-03T14:45:16.373Z,20.3
2023-11-03T14:50:14.327Z,20.2
2023-11-03T14:55:18.706Z,20.3
2023-11-03T15:00:14.657Z,20.3
2023-11-03T15:05:15.064Z,20.3
2023-11-03T15:10:16.828Z,20.3
2023-11-03T15:15:18.262Z,20.3
2023-11-03T15:20:16.156Z,20.3
2023-11-03T15:25:14.730Z,20.3
2023-11-03T15:30:15.958Z,20.3
2023-11-03T15:35:16.652Z,20.3
2023-11-03T15:40:20.948Z,20.3
2023-11-03T15:45:18.833Z,20.3
2023-11-03T15:50:20.695Z,20.3
2023-11-03T15:55:21.594Z,20.3
2023-11-03T16:00:20.431Z,20.3
2023-11-03T16:05:20.773Z,20.3
2023-11-03T16:10:18.445Z,20.3
2023-11-03T16:15:19.865Z,20.3
2023-11-03T16:20:15.357Z,20.2
2023-11-03T16:25:24.556Z,20.2
2023-11-03T16:30:21.447Z,20.2
2023-11-03T16:35:25.359Z,20.3
2023-11-03T16:40:18.069Z,20.3
2023-11-03T16:45:18.516Z,20.3
2023-11-03T16:50:20.608Z,20.3
2023-11-03T16:55:21.041Z,20.3
2023-11-03T17:00:14.346Z,20.3
2023-11-03T17:05:20.840Z,20.3
2023-11-03T17:10:22.913Z,20.3
2023-11-03T17:15:18.021Z,20.3
2023-11-03T17:20:24.158Z,20.3
2023-11-03T17:25:14.709Z,20.3
2023-11-03T17:30:18.021Z,20.3
2023-11-03T17:35:21.048Z,20.3
2023-11-03T17:40:20.350Z,20.3
2023-11-03T17:45:18.663Z,20.3
2023-11-03T17:50:22.952Z,20.4
2023-11-03T17:55:13.917Z,20.4
2023-11-03T18:00:15.206Z,20.4
2023-11-03T18:05:15.307Z,20.4
2023-11-03T18:10:18.433Z,20.4
2023-11-03T18:15:14.756Z,20.4
2023-11-03T18:20:16.708Z,20.4
2023-11-03T18:25:13.553Z,20.4
2023-11-03T18:30:14.908Z,20.4
2023-11-03T18:35:14.146Z,20.4
2023-11-03T18:40:16.504Z,20.4
2023-11-03T18:45:17.764Z,20.4
2023-11-03T19:08:01.190Z,20.4
2023-11-03T19:10:16.412Z,20.4
2023-11-03T19:15:16.779Z,20.4
2023-11-03T19:20:14.335Z,20.4
2023-11-03T19:25:14.511Z,20.4
2023-11-03T19:30:20.885Z,20.4
2023-11-03T19:35:13.877Z,20.4
2023-11-03T19:40:19.891Z,20.4
2023-11-03T19:45:16.272Z,20.4
2023-11-03T19:50:16.614Z,20.4
2023-11-03T19:55:16.707Z,20.4
2023-11-03T20:00:13.648Z,20.4
2023-11-03T20:05:15.077Z,20.4
2023-11-03T20:10:18.511Z,20.4
2023-11-03T20:15:18.518Z,20.4
2023-11-03T20:20:16.291Z,20.3
2023-11-03T20:25:14.682Z,20.3
2023-11-03T20:30:14.693Z,20.3
2023-11-03T20:35:17.156Z,20.3
2023-11-03T20:40:14.284Z,20.3
2023-11-03T20:45:24.527Z,20.3
2023-11-03T20:50:13.586Z,20.3
2023-11-03T20:55:20.763Z,20.3
2023-11-03T21:00:16.117Z,20.3
2023-11-03T21:05:27.266Z,20.3
2023-11-03T21:10:14.286Z,20.3
2023-11-03T21:15:24.640Z,20.3
2023-11-03T21:20:13.920Z,20.3
2023-11-03T21:25:15.851Z,20.3
2023-11-03T21:30:21.011Z,20.3
2023-11-03T21:35:18.000Z,20.3
2023-11-03T21:40:14.345Z,20.3
2023-11-03T21:45:21.944Z,20.3
2023-11-03T21:50:17.786Z,20.3
2023-11-03T21:55:15.853Z,20.3
2023-11-03T22:00:18.322Z,20.3
2023-11-03T22:05:16.734Z,20.3
2023-11-03T22:10:20.139Z,20.2
2023-11-03T22:15:20.146Z,20.3
2023-11-03T22:20:18.773Z,20.3
2023-11-03T22:25:20.105Z,20.3
2023-11-03T22:30:22.264Z,20.2
2023-11-03T22:35:16.360Z,20.2
2023-11-03T22:40:16.650Z,20.2
2023-11-03T22:45:20.828Z,20.2
2023-11-03T22:50:17.935Z,20.2
2023-11-03T22:55:22.047Z,20.2
2023-11-03T23:00:14.358Z,20.2
2023-11-03T23:05:17.125Z,20.2
2023-11-03T23:10:16.770Z,20.2
2023-11-03T23:15:18.543Z,20.2
2023-11-03T23:20:16.123Z,20.2
2023-11-03T23:25:22.645Z,20.2
2023-11-03T23:30:18.641Z,20.2
2023-11-03T23:35:14.519Z,20.1
2023-11-03T23:40:18.697Z,20.1
2023-11-03T23:45:17.619Z,20.1
2023-11-03T23:50:24.077Z,20.1
2023-11-03T23:55:20.132Z,20.1
